createdAt,value
2023-05-25T05:17:28.204Z,41.07
2023-05-25T05:19:56.328Z,41.17
2023-05-25T05:22:25.519Z,41.27
2023-05-25T05:24:53.409Z,41.33
2023-05-25T05:27:26.276Z,41.48
2023-05-25T05:29:59.332Z,41.40
2023-05-25T05:32:28.858Z,41.40
2023-05-25T05:34:58.028Z,41.66
2023-05-25T05:37:39.370Z,41.49
2023-05-25T05:40:08.911Z,41.14
2023-05-25T05:42:37.871Z,41.09
2023-05-25T05:45:06.767Z,40.90
2023-05-25T05:47:35.978Z,40.85
2023-05-25T05:50:04.202Z,41.27
2023-05-25T05:52:32.515Z,41.28
2023-05-25T05:55:00.583Z,40.79
2023-05-25T05:57:29.242Z,41.15
2023-05-25T05:59:57.132Z,40.95
2023-05-25T06:02:25.826Z,41.08
2023-05-25T06:04:55.640Z,40.81
2023-05-25T06:07:23.709Z,40.56
2023-05-25T06:09:51.639Z,40.67
2023-05-25T06:12:19.806Z,40.08
2023-05-25T06:14:49.918Z,40.30
2023-05-25T06:17:19.463Z,40.25
2023-05-25T06:19:47.389Z,39.55
2023-05-25T06:22:18.140Z,39.29
2023-05-25T06:24:46.167Z,39.63
2023-05-25T06:27:14.871Z,39.18
2023-05-25T06:29:43.017Z,39.33
2023-05-25T06:32:11.248Z,38.69
2023-05-25T06:34:39.978Z,39.13
2023-05-25T06:37:08.218Z,39.01
2023-05-25T06:39:40.001Z,38.33
2023-05-25T06:42:08.550Z,38.62
2023-05-25T06:44:36.392Z,38.33
2023-05-25T06:47:08.183Z,38.27
2023-05-25T06:49:36.182Z,37.92
2023-05-25T06:52:04.061Z,38.00
2023-05-25T06:54:31.960Z,38.16
2023-05-25T06:57:01.357Z,37.18
2023-05-25T06:59:29.367Z,37.37
2023-05-25T07:01:59.029Z,37.22
2023-05-25T07:04:27.203Z,36.91
2023-05-25T07:06:55.222Z,37.03
2023-05-25T07:09:23.236Z,36.88
2023-05-25T07:11:51.118Z,36.83
2023-05-25T07:14:20.474Z,37.05
2023-05-25T07:16:53.074Z,37.08
2023-05-25T07:19:21.280Z,36.58
2023-05-25T07:21:49.193Z,36.52
2023-05-25T07:24:18.253Z,36.49
2023-05-25T07:26:46.338Z,36.78
2023-05-25T07:29:15.007Z,36.32
2023-05-25T07:31:44.603Z,36.24
2023-05-25T07:34:12.500Z,36.74
2023-05-25T07:36:40.435Z,36.71
2023-05-25T07:39:11.416Z,35.92
2023-05-25T07:41:39.576Z,36.41
2023-05-25T07:44:07.372Z,36.16
2023-05-25T07:46:35.571Z,36.12
2023-05-25T07:49:06.256Z,35.62
2023-05-25T07:51:34.148Z,35.38
2023-05-25T07:54:01.961Z,35.31
2023-05-25T07:56:29.905Z,36.08
2023-05-25T07:58:58.018Z,35.45
2023-05-25T08:01:27.014Z,35.73
2023-05-25T08:03:55.200Z,35.39
2023-05-25T08:06:27.617Z,35.22
2023-05-25T08:08:55.675Z,34.93
2023-05-25T08:11:26.295Z,34.34
2023-05-25T08:13:54.397Z,34.28
2023-05-25T08:16:22.258Z,34.53
2023-05-25T08:18:50.550Z,34.80
2023-05-25T08:21:18.387Z,34.29
2023-05-25T08:23:48.055Z,34.34
2023-05-25T08:26:34.183Z,34.45
2023-05-25T08:29:04.237Z,34.72
2023-05-25T08:31:32.977Z,34.50
2023-05-25T08:34:01.512Z,34.32
2023-05-25T08:36:29.713Z,34.68
2023-05-25T08:38:59.107Z,34.00
2023-05-25T08:41:26.996Z,34.07
2023-05-25T08:43:55.127Z,34.00
2023-05-25T08:46:31.162Z,33.16
2023-05-25T08:49:19.847Z,33.66
2023-05-25T08:51:51.358Z,33.50
2023-05-25T08:54:23.892Z,33.06
2023-05-25T08:56:52.166Z,34.42
2023-05-25T08:59:32.742Z,33.90
2023-05-25T09:02:17.421Z,33.80
2023-05-25T09:04:49.087Z,33.85
2023-05-25T09:07:17.718Z,33.85
2023-05-25T09:09:49.454Z,32.75
2023-05-25T09:12:18.293Z,33.15
2023-05-25T09:14:47.835Z,33.40
2023-05-25T09:17:17.003Z,33.28
2023-05-25T09:19:45.768Z,33.48
2023-05-25T09:22:16.807Z,33.03
2023-05-25T09:24:46.042Z,33.09
2023-05-25T09:27:18.580Z,31.85
2023-05-25T09:29:48.261Z,32.44
2023-05-25T09:32:19.406Z,32.34
2023-05-25T09:34:48.119Z,32.29
2023-05-25T09:37:19.372Z,31.87
2023-05-25T09:39:48.641Z,31.93
2023-05-25T09:42:18.631Z,31.53
2023-05-25T09:44:46.709Z,31.37
2023-05-25T09:47:16.907Z,31.40
2023-05-25T09:49:47.596Z,31.67
2023-05-25T09:52:15.784Z,31.85
2023-05-25T09:54:45.641Z,31.90
2023-05-25T09:57:13.644Z,31.41
2023-05-25T09:59:43.068Z,31.72
2023-05-25T10:02:11.055Z,31.67
2023-05-25T10:04:39.389Z,31.35
2023-05-25T10:07:07.515Z,31.12
2023-05-25T10:09:40.065Z,30.72
2023-05-25T10:12:08.316Z,30.75
2023-05-25T10:14:38.355Z,31.40
2023-05-25T10:17:11.410Z,31.15
2023-05-25T10:19:46.740Z,30.87
2023-05-25T10:22:17.772Z,31.05
2023-05-25T10:24:54.956Z,31.09
2023-05-25T10:27:27.361Z,30.75
2023-05-25T10:29:57.483Z,31.63
2023-05-25T10:32:28.160Z,30.64
2023-05-25T10:34:58.138Z,30.83
2023-05-25T10:37:28.141Z,31.26
2023-05-25T10:39:58.136Z,30.95
2023-05-25T10:42:27.142Z,31.21
2023-05-25T10:44:56.624Z,30.85
2023-05-25T10:47:27.054Z,31.07
2023-05-25T10:49:57.638Z,30.67
2023-05-25T10:52:29.797Z,30.69
2023-05-25T10:54:58.320Z,31.30
2023-05-25T10:57:26.831Z,31.00
2023-05-25T11:00:00.000Z,30.77
2023-05-25T11:02:32.273Z,30.57
2023-05-25T11:05:38.437Z,30.42
2023-05-25T11:08:08.914Z,30.81
2023-05-25T11:10:54.187Z,30.86
2023-05-25T11:13:40.630Z,30.78
2023-05-25T11:16:13.785Z,30.88
2023-05-25T11:18:43.966Z,30.44
2023-05-25T11:21:22.588Z,30.84
2023-05-25T11:23:58.322Z,30.23
2023-05-25T11:26:28.179Z,30.48
2023-05-25T11:28:58.988Z,30.74
2023-05-25T11:31:35.856Z,30.22
2023-05-25T11:34:12.010Z,30.49
2023-05-25T11:36:41.387Z,30.37
2023-05-25T11:39:20.495Z,30.26
2023-05-25T11:41:51.416Z,30.92
2023-05-25T11:44:28.579Z,30.13
2023-05-25T11:46:58.094Z,30.34
2023-05-25T11:49:27.330Z,30.39
2023-05-25T11:51:55.497Z,31.26
2023-05-25T11:54:24.932Z,31.08
2023-05-25T11:56:53.759Z,31.08
2023-05-25T11:59:21.628Z,31.20
2023-05-25T12:02:00.192Z,30.79
2023-05-25T12:04:30.604Z,30.88
2023-05-25T12:07:05.934Z,30.65
2023-05-25T12:09:34.045Z,31.32
2023-05-25T12:12:04.292Z,30.84
2023-05-25T12:14:34.988Z,30.91
2023-05-25T12:17:03.008Z,30.95
2023-05-25T12:19:33.024Z,30.48
2023-05-25T12:22:01.174Z,30.65
2023-05-25T12:24:29.000Z,30.34
2023-05-25T12:26:57.430Z,30.37
2023-05-25T12:29:29.857Z,30.33
2023-05-25T12:32:04.355Z,30.48
2023-05-25T12:34:34.787Z,30.72
2023-05-25T12:37:02.586Z,30.61
2023-05-25T12:39:38.862Z,30.87
2023-05-25T12:42:14.354Z,30.86
2023-05-25T12:44:42.866Z,30.73
2023-05-25T12:47:12.602Z,31.07
2023-05-25T12:49:43.845Z,31.08
2023-05-25T12:52:12.466Z,30.84
2023-05-25T12:54:43.992Z,31.25
2023-05-25T12:57:14.260Z,31.49
2023-05-25T12:59:43.494Z,30.89
2023-05-25T13:02:12.032Z,31.34
2023-05-25T13:04:42.995Z,30.99
2023-05-25T13:07:11.104Z,31.32
2023-05-25T13:09:39.015Z,30.92
2023-05-25T13:12:07.579Z,31.27
2023-05-25T13:14:36.068Z,30.93
2023-05-25T13:17:03.984Z,30.88
2023-05-25T13:19:31.886Z,30.63
2023-05-25T13:22:01.189Z,30.92
2023-05-25T13:24:29.019Z,31.01
2023-05-25T13:26:57.228Z,30.70
2023-05-25T13:29:25.744Z,30.74
2023-05-25T13:31:53.872Z,30.90
2023-05-25T13:34:21.856Z,30.81
2023-05-25T13:36:49.921Z,30.73
2023-05-25T13:39:19.938Z,30.74
2023-05-25T13:41:48.190Z,30.84
2023-05-25T13:44:17.722Z,30.95
2023-05-25T13:46:46.848Z,30.50
2023-05-25T13:49:16.355Z,30.84
2023-05-25T13:51:44.422Z,30.85
2023-05-25T13:54:13.661Z,30.83
2023-05-25T13:56:43.035Z,30.92
2023-05-25T13:59:11.313Z,30.92
2023-05-25T14:01:39.547Z,31.04
2023-05-25T14:04:07.665Z,30.97
2023-05-25T14:06:35.937Z,30.60
2023-05-25T14:09:03.857Z,30.70
2023-05-25T14:11:31.841Z,30.75
2023-05-25T14:14:01.156Z,30.69
2023-05-25T14:16:29.158Z,30.92
2023-05-25T14:18:57.403Z,31.13
2023-05-25T14:21:25.305Z,31.13
2023-05-25T14:23:53.175Z,31.18
2023-05-25T14:26:22.024Z,30.89
2023-05-25T14:28:49.991Z,31.03
2023-05-25T14:31:19.532Z,30.98
2023-05-25T14:33:47.575Z,30.89
2023-05-25T14:36:15.570Z,30.92
2023-05-25T14:38:43.382Z,31.31
2023-05-25T14:41:11.325Z,30.83
2023-05-25T14:43:39.161Z,30.96
2023-05-25T14:46:07.408Z,31.19
2023-05-25T14:48:36.717Z,31.08
2023-05-25T14:51:05.072Z,30.79
2023-05-25T14:53:32.933Z,31.13
2023-05-25T14:56:00.965Z,30.89
2023-05-25T14:58:28.843Z,30.70
2023-05-25T15:00:57.012Z,31.08
2023-05-25T15:03:24.935Z,30.83
2023-05-25T15:05:54.249Z,30.99
2023-05-25T15:08:22.160Z,30.61
2023-05-25T15:10:50.705Z,30.84
2023-05-25T15:13:18.759Z,30.74
2023-05-25T15:15:47.070Z,30.66
2023-05-25T15:18:15.229Z,30.65
2023-05-25T15:20:43.200Z,30.39
2023-05-25T15:23:12.694Z,30.36
2023-05-25T15:25:40.589Z,30.39
2023-05-25T15:28:08.422Z,30.36
2023-05-25T15:30:36.412Z,30.87
2023-05-25T15:33:04.442Z,30.74
2023-05-25T15:35:32.704Z,31.03
2023-05-25T15:38:01.296Z,30.47
2023-05-25T15:40:30.844Z,30.35
2023-05-25T15:42:58.767Z,30.72
2023-05-25T15:45:26.806Z,30.49
2023-05-25T15:47:54.712Z,30.34
2023-05-25T15:50:22.779Z,30.60
2023-05-25T15:52:50.765Z,30.23
2023-05-25T15:55:18.995Z,30.38
2023-05-25T15:57:48.449Z,30.84
2023-05-25T16:00:17.427Z,30.38
2023-05-25T16:02:45.320Z,30.92
2023-05-25T16:05:13.329Z,30.87
2023-05-25T16:07:41.236Z,30.55
2023-05-25T16:10:10.449Z,30.73
2023-05-25T16:12:38.710Z,30.59
2023-05-25T16:15:09.098Z,30.92
2023-05-25T16:17:37.036Z,30.55
2023-05-25T16:20:06.633Z,30.50
2023-05-25T16:22:34.552Z,30.82
2023-05-25T16:25:02.522Z,30.23
2023-05-25T16:27:30.382Z,30.38
2023-05-25T16:29:58.247Z,30.35
2023-05-25T16:32:29.568Z,30.65
2023-05-25T16:34:58.196Z,30.51
2023-05-25T16:37:27.594Z,30.77
2023-05-25T16:39:56.795Z,30.48
2023-05-25T16:42:26.307Z,30.33
2023-05-25T16:44:54.333Z,30.36
2023-05-25T16:47:22.698Z,30.47
2023-05-25T16:49:51.968Z,30.65
2023-05-25T16:52:19.732Z,30.29
2023-05-25T16:54:47.679Z,30.72
2023-05-25T16:57:15.667Z,30.35
2023-05-25T16:59:43.571Z,30.40
2023-05-25T17:02:11.446Z,30.41
2023-05-25T17:04:39.329Z,30.51
2023-05-25T17:07:08.608Z,30.72
2023-05-25T17:09:36.471Z,30.63
2023-05-25T17:12:04.292Z,31.11
2023-05-25T17:14:32.229Z,31.04
2023-05-25T17:17:00.482Z,30.43
2023-05-25T17:19:28.427Z,30.47
2023-05-25T17:21:56.413Z,30.43
2023-05-25T17:24:25.677Z,30.39
2023-05-25T17:26:53.515Z,30.71
2023-05-25T17:29:21.414Z,30.58
2023-05-25T17:31:50.084Z,30.51
2023-05-25T17:34:18.242Z,31.04
2023-05-25T17:36:46.085Z,31.15
2023-05-25T17:39:13.929Z,30.66
2023-05-25T17:41:45.343Z,30.84
2023-05-25T17:44:13.287Z,30.74
2023-05-25T17:46:41.506Z,30.61
2023-05-25T17:49:09.659Z,30.60
2023-05-25T17:51:38.635Z,31.21
2023-05-25T17:54:06.798Z,30.75
2023-05-25T17:56:34.647Z,31.12
2023-05-25T17:59:03.978Z,31.00
2023-05-25T18:01:32.061Z,30.73
2023-05-25T18:04:00.128Z,31.21
2023-05-25T18:06:29.371Z,31.31
2023-05-25T18:08:57.520Z,31.14
2023-05-25T18:11:26.138Z,31.17
2023-05-25T18:13:54.140Z,30.96
2023-05-25T18:16:23.388Z,31.11
2023-05-25T18:18:51.266Z,31.37
2023-05-25T18:21:19.142Z,31.26
2023-05-25T18:23:47.138Z,30.90
2023-05-25T18:26:15.066Z,31.49
2023-05-25T18:28:43.046Z,31.38
2023-05-25T18:31:11.017Z,30.97
2023-05-25T18:33:41.175Z,31.46
2023-05-25T18:36:09.453Z,30.96
2023-05-25T18:38:37.406Z,31.53
2023-05-25T18:41:05.453Z,30.95
2023-05-25T18:43:33.349Z,31.10
2023-05-25T18:46:01.260Z,30.93
2023-05-25T18:48:29.102Z,31.18
2023-05-25T18:50:58.391Z,31.06
2023-05-25T18:53:26.311Z,30.99
2023-05-25T18:55:54.160Z,31.59
2023-05-25T18:58:22.056Z,31.04
2023-05-25T19:00:49.917Z,31.27
2023-05-25T19:03:18.131Z,31.41
2023-05-25T19:05:46.310Z,31.77
2023-05-25T19:08:15.783Z,31.70
2023-05-25T19:10:43.652Z,31.32
2023-05-25T19:13:11.582Z,31.83
2023-05-25T19:15:39.507Z,31.36
2023-05-25T19:18:07.402Z,31.44
2023-05-25T19:20:36.010Z,31.99
2023-05-25T19:23:03.970Z,31.86
2023-05-25T19:25:33.447Z,31.46
2023-05-25T19:28:01.492Z,31.63
2023-05-25T19:30:29.458Z,31.96
2023-05-25T19:32:57.455Z,31.53
2023-05-25T19:35:25.756Z,31.77
2023-05-25T19:37:53.637Z,32.07
2023-05-25T19:40:21.656Z,31.79
2023-05-25T19:42:51.055Z,32.25
2023-05-25T19:45:19.659Z,31.76
2023-05-25T19:47:47.655Z,32.01
2023-05-25T19:50:15.659Z,32.06
2023-05-25T19:52:43.535Z,31.92
2023-05-25T19:55:11.433Z,32.36
2023-05-25T19:57:39.449Z,32.53
2023-05-25T20:00:17.556Z,32.58
2023-05-25T20:02:53.623Z,32.05
2023-05-25T20:05:21.889Z,32.24
2023-05-25T20:07:50.924Z,32.36
2023-05-25T20:10:19.114Z,32.24
2023-05-25T20:12:47.084Z,32.38
2023-05-25T20:15:16.733Z,32.34
2023-05-25T20:17:44.835Z,32.68
2023-05-25T20:20:12.902Z,32.33
2023-05-25T20:22:41.046Z,32.34
2023-05-25T20:25:09.273Z,32.79
2023-05-25T20:27:37.285Z,32.64
2023-05-25T20:30:05.786Z,32.96
2023-05-25T20:32:35.130Z,32.66
2023-05-25T20:35:03.174Z,33.25
2023-05-25T20:37:31.051Z,33.19
2023-05-25T20:39:58.930Z,32.80
2023-05-25T20:42:26.842Z,33.14
2023-05-25T20:44:54.649Z,33.31
2023-05-25T20:47:22.631Z,33.40
2023-05-25T20:49:51.924Z,33.11
2023-05-25T20:52:21.101Z,33.37
2023-05-25T20:54:49.012Z,33.32
2023-05-25T20:57:16.935Z,33.64
2023-05-25T20:59:44.746Z,33.51
2023-05-25T21:02:12.683Z,33.74
2023-05-25T21:04:40.718Z,33.55
2023-05-25T21:07:09.978Z,33.88
2023-05-25T21:09:38.167Z,33.54
2023-05-25T21:12:07.563Z,33.57
2023-05-25T21:14:35.687Z,33.45
2023-05-25T21:17:03.590Z,33.55
2023-05-25T21:19:31.460Z,34.09
2023-05-25T21:21:59.501Z,34.06
2023-05-25T21:24:28.740Z,33.78
2023-05-25T21:26:56.753Z,33.90
2023-05-25T21:29:24.608Z,33.80
2023-05-25T21:31:52.572Z,34.20
2023-05-25T21:34:20.458Z,33.77
2023-05-25T21:36:49.002Z,34.39
2023-05-25T21:39:16.888Z,34.41
2023-05-25T21:41:46.128Z,34.12
2023-05-25T21:44:13.996Z,33.99
2023-05-25T21:46:41.940Z,34.05
2023-05-25T21:49:09.782Z,34.03
2023-05-25T21:51:37.695Z,34.15
2023-05-25T21:54:05.638Z,34.61
2023-05-25T21:56:33.504Z,34.42
2023-05-25T21:59:02.707Z,34.03
2023-05-25T22:01:30.672Z,34.51
2023-05-25T22:03:58.521Z,34.20
2023-05-25T22:06:26.415Z,34.67
2023-05-25T22:08:54.292Z,34.20
2023-05-25T22:11:22.263Z,34.67
2023-05-25T22:13:50.111Z,34.72
2023-05-25T22:16:19.537Z,34.18
2023-05-25T22:18:47.386Z,34.07
2023-05-25T22:21:16.078Z,34.64
2023-05-25T22:23:43.889Z,34.46
2023-05-25T22:26:11.984Z,34.41
2023-05-25T22:28:39.853Z,34.40
2023-05-25T22:31:07.944Z,34.48
2023-05-25T22:33:37.570Z,34.24
2023-05-25T22:36:06.190Z,34.59
2023-05-25T22:38:34.124Z,34.53
2023-05-25T22:41:02.033Z,34.07
2023-05-25T22:43:29.859Z,34.19
2023-05-25T22:45:58.818Z,34.54
2023-05-25T22:48:27.086Z,33.91
2023-05-25T22:50:56.377Z,34.11
2023-05-25T22:53:24.208Z,34.46
2023-05-25T22:55:52.317Z,34.37
2023-05-25T22:58:20.359Z,34.35
2023-05-25T23:00:48.423Z,34.43
2023-05-25T23:03:16.383Z,34.46
2023-05-25T23:05:44.385Z,33.89
2023-05-25T23:08:13.748Z,34.49
2023-05-25T23:10:41.633Z,33.91
2023-05-25T23:13:09.432Z,34.39
2023-05-25T23:15:40.035Z,34.29
2023-05-25T23:18:08.229Z,33.85
2023-05-25T23:20:36.138Z,33.96
2023-05-25T23:23:04.137Z,34.40
2023-05-25T23:25:33.431Z,34.41
2023-05-25T23:28:01.302Z,34.48
2023-05-25T23:30:29.160Z,34.56
2023-05-25T23:32:57.076Z,34.67
2023-05-25T23:35:24.899Z,34.06
2023-05-25T23:37:52.890Z,34.14
2023-05-25T23:40:20.728Z,34.19
2023-05-25T23:42:49.946Z,34.68
2023-05-25T23:45:17.886Z,34.11
2023-05-25T23:47:45.847Z,34.30
2023-05-25T23:50:13.713Z,34.15
2023-05-25T23:52:41.727Z,34.35
2023-05-25T23:55:09.864Z,34.16
2023-05-25T23:57:37.838Z,34.43
